Time;durP1;ratioP1;P1;durP2;ratioP2;P2;SDS_P1;SDS_P2;PMS_P1;PMS_P2;Temp;Humidity;BMP_temperature;BMP_pressure;BME280_temperature;BME280_humidity;BME280_pressure;Samples;Min_cycle;Max_cycle;Signal;HPM_P1;HPM_P2
2022/10/17 00:00:44;;;;;;;2.22;1.88;;;17.00;75.90;;;;;;4785719;29;20429;-51
2022/10/17 00:03:11;;;;;;;3.13;2.85;;;17.00;75.90;;;;;;4792770;29;20508;-49
2022/10/17 00:05:43;;;;;;;2.25;2.05;;;17.00;75.90;;;;;;4795024;29;20051;-51
2022/10/17 00:08:13;;;;;;;2.33;2.13;;;16.90;75.80;;;;;;4788695;29;20053;-53
2022/10/17 00:10:41;;;;;;;2.58;2.38;;;16.90;75.80;;;;;;4785342;29;20051;-52
2022/10/17 00:13:10;;;;;;;3.00;2.20;;;16.90;75.90;;;;;;4790345;29;20051;-53
2022/10/17 00:15:37;;;;;;;3.00;2.10;;;16.90;75.90;;;;;;4786071;29;20059;-51
2022/10/17 00:18:04;;;;;;;3.60;2.30;;;16.90;75.90;;;;;;4793850;29;20053;-50
2022/10/17 00:20:34;;;;;;;3.28;2.53;;;16.90;75.80;;;;;;4784823;29;20064;-52
2022/10/17 00:23:00;;;;;;;3.88;2.53;;;16.80;76.00;;;;;;4794407;29;20501;-50
2022/10/17 00:25:34;;;;;;;2.55;2.30;;;16.80;75.90;;;;;;4785081;29;20051;-53
2022/10/17 00:28:01;;;;;;;2.80;2.50;;;16.80;75.90;;;;;;4785908;29;20058;-53
2022/10/17 00:30:27;;;;;;;6.47;3.15;;;16.80;76.10;;;;;;4784856;29;20059;-51
2022/10/17 00:32:54;;;;;;;4.68;3.60;;;16.80;76.40;;;;;;4792029;29;20051;-52
2022/10/17 00:35:23;;;;;;;3.95;3.53;;;16.80;76.50;;;;;;4785330;29;20054;-52
2022/10/17 00:37:49;;;;;;;3.60;3.30;;;16.80;76.90;;;;;;4786576;29;20052;-51
2022/10/17 00:40:16;;;;;;;5.78;3.42;;;16.80;77.10;;;;;;4801034;29;20043;-52
2022/10/17 00:42:46;;;;;;;5.28;3.40;;;16.80;77.40;;;;;;4806792;29;20104;-54
2022/10/17 00:45:18;;;;;;;4.95;3.92;;;16.80;77.60;;;;;;4783737;29;20051;-51
2022/10/17 00:47:53;;;;;;;4.20;3.70;;;16.80;77.90;;;;;;4784435;29;20071;-54
2022/10/17 00:50:20;;;;;;;5.05;3.65;;;16.80;78.00;;;;;;4789398;29;20054;-53
2022/10/17 00:52:49;;;;;;;4.72;3.88;;;16.80;77.90;;;;;;4784716;29;20047;-52
2022/10/17 00:55:24;;;;;;;4.25;3.65;;;16.90;78.00;;;;;;4784787;29;20046;-49
2022/10/17 00:57:52;;;;;;;5.18;4.35;;;16.90;78.10;;;;;;4791335;29;20134;-53
2022/10/17 01:00:19;;;;;;;6.55;4.53;;;16.90;78.10;;;;;;4794872;29;20051;-51
2022/10/17 01:02:46;;;;;;;5.53;3.97;;;16.90;78.30;;;;;;4790795;29;20043;-52
2022/10/17 01:05:18;;;;;;;4.88;4.47;;;16.90;78.30;;;;;;4784139;29;20075;-49
2022/10/17 01:07:47;;;;;;;6.45;4.20;;;16.90;78.40;;;;;;4779983;29;20524;-50
2022/10/17 01:10:17;;;;;;;6.28;4.43;;;16.90;78.50;;;;;;4785649;29;20047;-52
2022/10/17 01:13:07;;;;;;;4.70;4.30;;;16.90;78.80;;;;;;4784331;29;20048;-50
2022/10/17 01:16:02;;;;;;;6.90;4.47;;;16.90;79.10;;;;;;4784167;29;20058;-50
2022/10/17 01:18:43;;;;;;;4.85;4.38;;;17.00;79.70;;;;;;4776359;29;20055;-53
2022/10/17 01:21:31;;;;;;;5.15;4.65;;;17.00;79.40;;;;;;4798326;29;20047;-52
2022/10/17 01:24:31;;;;;;;5.03;4.53;;;17.00;79.70;;;;;;4783629;29;20047;-52
2022/10/17 01:27:16;;;;;;;6.25;4.68;;;17.00;79.30;;;;;;4785418;29;20053;-50
2022/10/17 01:30:17;;;;;;;4.97;4.05;;;17.00;79.30;;;;;;4785712;29;20047;-55
2022/10/17 01:32:49;;;;;;;5.53;4.20;;;17.00;79.60;;;;;;4780272;30;20112;-53
2022/10/17 01:35:42;;;;;;;5.00;4.20;;;17.00;78.90;;;;;;4782922;29;20054;-54
2022/10/17 01:38:19;;;;;;;4.45;4.05;;;17.10;79.30;;;;;;4782131;29;20057;-52
2022/10/17 01:40:54;;;;;;;5.80;4.70;;;17.10;79.10;;;;;;4782888;29;20109;-49
2022/10/17 01:43:33;;;;;;;5.03;4.55;;;17.00;79.00;;;;;;4782407;29;20277;-52
2022/10/17 01:46:14;;;;;;;5.10;4.65;;;17.00;78.90;;;;;;4792836;29;20095;-52
2022/10/17 01:48:44;;;;;;;5.93;4.30;;;17.00;78.80;;;;;;4799451;29;20055;-55
2022/10/17 01:51:23;;;;;;;5.75;4.72;;;17.00;79.20;;;;;;4783375;29;20147;-51
2022/10/17 01:54:14;;;;;;;5.07;4.57;;;17.00;78.80;;;;;;4801501;29;20047;-54
2022/10/17 01:56:42;;;;;;;6.15;4.90;;;17.00;78.90;;;;;;4803994;29;20056;-53
2022/10/17 01:59:23;;;;;;;8.18;4.65;;;17.00;78.80;;;;;;4785768;29;20055;-49
2022/10/17 02:01:52;;;;;;;5.13;4.63;;;17.00;79.10;;;;;;4782919;29;20547;-53
2022/10/17 02:04:21;;;;;;;5.93;4.93;;;17.00;78.90;;;;;;4797202;29;20043;-52
2022/10/17 02:06:47;;;;;;;5.30;4.78;;;17.00;78.80;;;;;;4796332;29;20069;-53
2022/10/17 02:09:23;;;;;;;5.28;4.18;;;17.00;78.90;;;;;;4784031;29;20104;-53
2022/10/17 02:12:24;;;;;;;5.68;5.13;;;17.00;79.30;;;;;;4783486;29;20055;-49
2022/10/17 02:15:09;;;;;;;4.85;4.45;;;17.00;79.90;;;;;;4778020;29;20120;-52
2022/10/17 02:17:56;;;;;;;6.10;4.55;;;17.00;79.70;;;;;;4799005;29;20254;-51
2022/10/17 02:20:31;;;;;;;5.75;5.07;;;17.00;79.50;;;;;;4818353;29;20047;-52
2022/10/17 02:23:11;;;;;;;5.72;5.15;;;17.00;79.20;;;;;;4787172;29;20052;-52
2022/10/17 02:26:09;;;;;;;7.15;5.25;;;17.00;79.90;;;;;;4800909;29;20055;-49
2022/10/17 02:28:43;;;;;;;6.82;5.13;;;17.00;79.60;;;;;;4809305;24;20047;-46
2022/10/17 02:31:21;;;;;;;5.88;5.10;;;17.00;79.30;;;;;;4804225;29;20051;-47
2022/10/17 02:33:59;;;;;;;5.80;5.03;;;17.00;79.30;;;;;;4799318;29;20050;-47
2022/10/17 02:36:32;;;;;;;7.28;5.05;;;17.00;79.20;;;;;;4807463;29;20047;-50
2022/10/17 02:39:01;;;;;;;5.75;5.25;;;17.00;79.30;;;;;;4803681;29;20047;-46
2022/10/17 02:41:30;;;;;;;5.82;5.20;;;16.90;79.30;;;;;;4799786;29;20125;-47
2022/10/17 02:44:01;;;;;;;7.10;5.40;;;17.00;79.50;;;;;;4804426;29;20043;-47
2022/10/17 02:46:32;;;;;;;6.15;5.50;;;16.90;79.50;;;;;;4787419;29;20081;-46
2022/10/17 02:49:16;;;;;;;7.82;5.78;;;16.90;79.50;;;;;;4788625;29;20048;-47
2022/10/17 02:51:51;;;;;;;5.78;4.93;;;16.90;79.60;;;;;;4793345;29;20085;-46
2022/10/17 02:54:20;;;;;;;6.07;5.47;;;17.00;79.70;;;;;;4801925;29;20058;-46
2022/10/17 02:56:59;;;;;;;5.88;5.20;;;16.90;79.50;;;;;;4804420;29;20100;-49
2022/10/17 02:59:29;;;;;;;8.00;5.90;;;17.00;79.80;;;;;;4806073;29;20046;-49
2022/10/17 03:02:03;;;;;;;5.72;5.20;;;17.00;79.70;;;;;;4797635;29;20058;-46
2022/10/17 03:04:30;;;;;;;5.80;5.28;;;17.00;79.70;;;;;;4802944;29;20059;-48
2022/10/17 03:06:56;;;;;;;5.57;4.63;;;17.00;79.60;;;;;;4804064;29;20047;-46
2022/10/17 03:09:23;;;;;;;6.25;5.00;;;17.00;79.40;;;;;;4803322;29;20073;-46
2022/10/17 03:11:52;;;;;;;6.70;5.20;;;16.90;79.20;;;;;;4803160;29;20516;-46
2022/10/17 03:14:19;;;;;;;5.32;4.85;;;16.90;79.20;;;;;;4803284;29;20054;-50
2022/10/17 03:16:45;;;;;;;6.10;5.20;;;16.90;79.90;;;;;;4809810;29;20081;-50
2022/10/17 03:19:16;;;;;;;6.22;5.65;;;16.90;79.20;;;;;;4800230;29;20051;-49
2022/10/17 03:21:42;;;;;;;6.05;5.20;;;16.90;79.00;;;;;;4803611;29;20057;-51
2022/10/17 03:24:10;;;;;;;7.30;4.85;;;16.90;78.90;;;;;;4803374;29;20046;-47
2022/10/17 03:26:37;;;;;;;5.35;4.82;;;16.90;79.00;;;;;;4803555;29;20054;-51
2022/10/17 03:29:05;;;;;;;6.00;5.20;;;16.90;79.10;;;;;;4794876;29;20142;-50
2022/10/17 03:31:33;;;;;;;5.03;4.53;;;16.80;79.10;;;;;;4803197;29;20138;-49
2022/10/17 03:34:01;;;;;;;6.50;5.30;;;16.80;79.10;;;;;;4803501;29;20053;-51
2022/10/17 03:36:28;;;;;;;5.45;4.80;;;16.80;79.10;;;;;;4800561;29;20709;-46
2022/10/17 03:38:55;;;;;;;5.40;4.82;;;16.80;79.20;;;;;;4795881;29;20134;-51
2022/10/17 03:41:22;;;;;;;5.95;5.10;;;16.80;79.20;;;;;;4803251;29;20416;-51
2022/10/17 03:43:52;;;;;;;5.93;5.22;;;16.80;79.30;;;;;;4802575;29;20047;-49
2022/10/17 03:46:20;;;;;;;6.82;5.53;;;16.80;79.60;;;;;;4800238;29;20051;-50
2022/10/17 03:48:46;;;;;;;6.45;5.30;;;16.80;79.60;;;;;;4798701;29;20081;-51
2022/10/17 03:51:15;;;;;;;6.55;5.30;;;16.80;79.70;;;;;;4802783;29;20487;-48
2022/10/17 03:53:50;;;;;;;7.35;5.38;;;16.80;79.80;;;;;;4802196;29;20090;-50
2022/10/17 03:56:20;;;;;;;8.88;5.97;;;16.80;79.80;;;;;;4798618;29;20406;-48
2022/10/17 03:58:55;;;;;;;5.53;4.60;;;16.80;80.00;;;;;;4803055;29;20149;-48
2022/10/17 04:01:22;;;;;;;6.05;5.45;;;16.80;80.10;;;;;;4801066;29;20425;-48
2022/10/17 04:03:54;;;;;;;7.80;5.30;;;16.90;80.30;;;;;;4799669;29;20046;-48
2022/10/17 04:06:26;;;;;;;6.40;5.80;;;16.90;80.40;;;;;;4801313;29;20073;-48
2022/10/17 04:08:52;;;;;;;8.18;4.75;;;16.90;80.40;;;;;;4802020;29;20058;-49
2022/10/17 04:11:39;;;;;;;6.85;5.50;;;16.90;80.50;;;;;;4804112;29;20058;-50
2022/10/17 04:14:06;;;;;;;5.93;4.63;;;16.90;80.40;;;;;;4801666;29;20054;-50
2022/10/17 04:16:37;;;;;;;6.10;5.50;;;16.90;80.90;;;;;;4797075;29;20047;-51
2022/10/17 04:19:12;;;;;;;7.63;5.63;;;17.00;80.20;;;;;;4803404;29;20062;-51
2022/10/17 04:21:45;;;;;;;8.82;5.40;;;17.00;80.20;;;;;;4801324;29;20061;-48
2022/10/17 04:24:13;;;;;;;5.65;5.03;;;17.00;79.90;;;;;;4799483;29;20075;-49
2022/10/17 04:26:58;;;;;;;5.80;5.22;;;17.00;79.90;;;;;;4801325;29;20530;-49
2022/10/17 04:29:31;;;;;;;5.97;5.15;;;17.00;79.90;;;;;;4800557;29;20330;-48
2022/10/17 04:32:05;;;;;;;6.40;5.22;;;17.00;80.00;;;;;;4801690;29;20088;-50
2022/10/17 04:34:39;;;;;;;6.50;5.07;;;17.00;79.90;;;;;;4799347;29;20053;-47
2022/10/17 04:37:06;;;;;;;6.25;4.90;;;17.00;80.10;;;;;;4801146;29;20055;-49
2022/10/17 04:39:36;;;;;;;6.68;5.18;;;17.00;80.30;;;;;;4798423;29;20083;-46
2022/10/17 04:42:03;;;;;;;5.90;5.32;;;17.10;80.50;;;;;;4800705;29;20123;-51
2022/10/17 04:44:32;;;;;;;8.50;5.57;;;17.10;80.60;;;;;;4798361;29;20135;-48
2022/10/17 04:46:59;;;;;;;5.97;5.28;;;17.10;80.70;;;;;;4802004;29;20043;-47
2022/10/17 04:49:26;;;;;;;8.73;5.13;;;17.10;80.80;;;;;;4800831;29;20146;-47
2022/10/17 04:51:58;;;;;;;6.82;4.78;;;17.20;80.80;;;;;;4800601;29;20066;-46
2022/10/17 04:54:36;;;;;;;4.78;4.13;;;17.20;80.50;;;;;;4796410;29;20580;-47
2022/10/17 04:57:07;;;;;;;6.75;5.25;;;17.20;80.30;;;;;;4800918;29;20077;-50
2022/10/17 04:59:34;;;;;;;6.70;4.38;;;17.30;80.30;;;;;;4797690;29;20031;-47
2022/10/17 05:02:19;;;;;;;5.05;4.53;;;17.20;80.00;;;;;;4797005;29;20074;-46
2022/10/17 05:04:48;;;;;;;6.70;5.15;;;17.30;80.00;;;;;;4800188;29;20104;-47
2022/10/17 05:07:15;;;;;;;5.20;4.70;;;17.30;80.10;;;;;;4799724;29;20043;-51
2022/10/17 05:09:52;;;;;;;6.28;4.88;;;17.30;80.30;;;;;;4801258;29;20103;-51
2022/10/17 05:12:18;;;;;;;6.70;5.28;;;17.30;80.40;;;;;;4797422;29;20051;-48
2022/10/17 05:14:46;;;;;;;6.53;4.93;;;17.30;80.60;;;;;;4800378;29;20054;-50
2022/10/17 05:17:16;;;;;;;5.85;5.22;;;17.30;80.60;;;;;;4812818;29;20050;-47
2022/10/17 05:19:45;;;;;;;5.35;4.85;;;17.30;80.80;;;;;;4807421;29;20043;-50
2022/10/17 05:22:16;;;;;;;7.45;5.10;;;17.30;81.30;;;;;;4801105;29;20047;-51
2022/10/17 05:24:42;;;;;;;5.45;5.00;;;17.30;80.60;;;;;;4802091;29;20051;-48
2022/10/17 05:27:10;;;;;;;6.43;4.82;;;17.40;80.60;;;;;;4801507;29;20074;-51
2022/10/17 05:29:37;;;;;;;9.07;5.47;;;17.40;80.50;;;;;;4800122;29;20054;-48
2022/10/17 05:32:17;;;;;;;7.63;5.70;;;17.40;80.40;;;;;;4797492;29;20077;-52
2022/10/17 05:34:44;;;;;;;8.25;5.47;;;17.40;80.20;;;;;;4800934;29;20057;-50
2022/10/17 05:37:11;;;;;;;5.95;4.65;;;17.30;80.10;;;;;;4797449;29;20065;-50
2022/10/17 05:39:40;;;;;;;7.50;5.28;;;17.40;80.10;;;;;;4794710;29;20051;-52
2022/10/17 05:42:11;;;;;;;6.50;5.13;;;17.40;80.00;;;;;;4797902;29;20497;-49
2022/10/17 05:44:40;;;;;;;6.88;5.43;;;17.40;79.90;;;;;;4799413;29;20043;-51
2022/10/17 05:47:08;;;;;;;8.00;5.30;;;17.30;79.70;;;;;;4799428;29;20046;-51
2022/10/17 05:49:34;;;;;;;9.00;4.72;;;17.30;79.60;;;;;;4794771;29;20643;-46
2022/10/17 05:52:12;;;;;;;5.65;5.03;;;17.30;79.50;;;;;;4797959;29;20558;-51
2022/10/17 05:54:55;;;;;;;7.07;5.22;;;17.20;79.50;;;;;;4805273;29;20058;-48
2022/10/17 05:57:27;;;;;;;6.38;5.63;;;17.20;79.60;;;;;;4814942;29;20068;-48
2022/10/17 05:59:55;;;;;;;8.65;6.70;;;17.20;79.60;;;;;;4792775;29;20166;-51
2022/10/17 06:02:21;;;;;;;5.55;5.03;;;17.20;79.70;;;;;;4798962;29;20051;-49
2022/10/17 06:04:49;;;;;;;7.10;6.05;;;17.20;79.70;;;;;;4799922;29;20050;-49
2022/10/17 06:07:17;;;;;;;5.82;5.32;;;17.20;79.60;;;;;;4799761;29;20050;-47
2022/10/17 06:09:44;;;;;;;5.82;5.15;;;17.20;79.60;;;;;;4799080;29;20098;-46
2022/10/17 06:12:16;;;;;;;5.93;5.32;;;17.20;79.60;;;;;;4799973;29;20057;-50
2022/10/17 06:14:44;;;;;;;7.03;6.28;;;17.20;79.50;;;;;;4798459;29;20055;-49
2022/10/17 06:17:12;;;;;;;6.60;5.30;;;17.20;79.60;;;;;;4799347;29;20132;-49
2022/10/17 06:19:43;;;;;;;5.20;4.70;;;17.20;79.70;;;;;;4796272;29;20039;-48
2022/10/17 06:22:11;;;;;;;6.13;5.20;;;17.20;79.60;;;;;;4800179;29;20054;-48
2022/10/17 06:24:39;;;;;;;7.88;5.78;;;17.20;79.60;;;;;;4800742;29;20046;-50
2022/10/17 06:27:06;;;;;;;6.38;5.78;;;17.20;79.60;;;;;;4798212;29;20047;-50
2022/10/17 06:29:38;;;;;;;6.20;5.47;;;17.20;79.50;;;;;;4801090;29;20046;-51
2022/10/17 06:32:06;;;;;;;7.65;5.90;;;17.20;79.40;;;;;;4800823;29;20081;-47
2022/10/17 06:34:38;;;;;;;9.20;5.55;;;17.20;79.40;;;;;;4798483;29;20051;-51
2022/10/17 06:37:05;;;;;;;7.32;5.70;;;17.20;79.30;;;;;;4797744;29;20513;-49
2022/10/17 06:39:34;;;;;;;7.93;6.55;;;17.20;79.50;;;;;;4801394;29;20054;-49
2022/10/17 06:42:05;;;;;;;7.60;5.78;;;17.30;79.60;;;;;;4801849;29;20063;-48
2022/10/17 06:45:00;;;;;;;9.63;6.80;;;17.20;79.70;;;;;;4782498;29;20143;-51
2022/10/17 06:48:01;;;;;;;7.60;6.03;;;17.30;79.80;;;;;;4779752;29;20621;-50
2022/10/17 06:50:53;;;;;;;8.38;6.30;;;17.30;80.40;;;;;;4799938;29;20051;-47
2022/10/17 06:53:23;;;;;;;8.23;6.15;;;17.30;79.60;;;;;;4800731;29;20084;-47
2022/10/17 06:56:24;;;;;;;8.18;6.72;;;17.30;79.70;;;;;;4813124;29;20059;-47
2022/10/17 06:59:09;;;;;;;7.72;5.45;;;17.40;79.80;;;;;;4801985;29;20104;-48
2022/10/17 07:01:39;;;;;;;6.28;5.70;;;17.30;79.80;;;;;;4800606;29;20043;-51
2022/10/17 07:04:13;;;;;;;7.50;5.22;;;17.40;79.90;;;;;;4815505;29;20402;-51
2022/10/17 07:06:40;;;;;;;6.13;5.63;;;17.40;80.10;;;;;;4805593;29;20043;-49
2022/10/17 07:09:13;;;;;;;8.45;6.93;;;17.50;80.40;;;;;;4802206;29;20077;-49
2022/10/17 07:11:40;;;;;;;6.70;5.97;;;17.40;80.40;;;;;;4802443;29;20497;-51
2022/10/17 07:14:09;;;;;;;7.43;6.30;;;17.60;80.70;;;;;;4802402;29;20045;-49
2022/10/17 07:16:36;;;;;;;7.57;5.93;;;17.50;80.70;;;;;;4805670;29;20627;-49
2022/10/17 07:19:21;;;;;;;7.57;6.45;;;17.60;80.90;;;;;;4806478;29;20039;-50
2022/10/17 07:21:49;;;;;;;6.80;6.10;;;17.60;80.80;;;;;;4803840;29;20043;-48
2022/10/17 07:24:16;;;;;;;6.63;5.72;;;17.70;80.90;;;;;;4804083;29;20531;-51
2022/10/17 07:26:49;;;;;;;6.32;5.72;;;17.70;80.90;;;;;;4803754;29;20054;-51
2022/10/17 07:29:17;;;;;;;7.43;5.82;;;17.80;81.00;;;;;;4804518;29;20843;-49
2022/10/17 07:31:53;;;;;;;6.03;5.35;;;17.80;80.90;;;;;;4803357;29;20046;-50
2022/10/17 07:34:26;;;;;;;6.15;5.55;;;17.90;81.10;;;;;;4800531;29;20055;-49
2022/10/17 07:36:53;;;;;;;7.25;5.10;;;17.90;81.30;;;;;;4804198;29;20054;-47
2022/10/17 07:39:19;;;;;;;8.10;5.15;;;18.00;81.60;;;;;;4797928;29;20038;-51
2022/10/17 07:41:48;;;;;;;6.30;5.10;;;18.10;81.90;;;;;;4803543;29;20067;-49
2022/10/17 07:44:15;;;;;;;5.40;4.72;;;18.10;82.10;;;;;;4803111;29;20063;-50
2022/10/17 07:46:45;;;;;;;6.07;5.35;;;18.20;82.20;;;;;;4801706;29;20508;-49
2022/10/17 07:49:12;;;;;;;5.97;4.78;;;18.20;82.20;;;;;;4803871;29;20051;-49
2022/10/17 07:51:41;;;;;;;4.90;4.38;;;18.30;82.10;;;;;;4798820;29;20070;-50
2022/10/17 07:54:08;;;;;;;5.60;4.55;;;18.40;82.20;;;;;;4801916;29;20051;-50
2022/10/17 07:56:35;;;;;;;5.35;4.88;;;18.50;82.20;;;;;;4805061;29;20111;-49
2022/10/17 07:59:04;;;;;;;6.85;5.05;;;18.60;82.20;;;;;;4801663;29;20100;-51
2022/10/17 08:01:35;;;;;;;6.68;4.50;;;18.70;82.00;;;;;;4804092;29;20043;-49
2022/10/17 08:04:04;;;;;;;7.38;4.22;;;18.70;81.90;;;;;;4804693;29;20118;-51
2022/10/17 08:06:31;;;;;;;8.82;4.65;;;18.80;81.70;;;;;;4805158;29;20420;-51
2022/10/17 08:09:00;;;;;;;5.57;4.82;;;18.90;81.70;;;;;;4802427;29;20046;-48
2022/10/17 08:11:31;;;;;;;5.28;4.43;;;19.00;81.70;;;;;;4802028;29;20046;-49
2022/10/17 08:14:00;;;;;;;7.07;4.72;;;19.00;81.70;;;;;;4805257;29;20043;-51
2022/10/17 08:16:27;;;;;;;5.70;4.88;;;19.10;81.60;;;;;;4809336;29;20043;-51
2022/10/17 08:18:56;;;;;;;5.70;4.80;;;19.20;82.10;;;;;;4805134;29;20433;-50
2022/10/17 08:21:23;;;;;;;5.07;4.28;;;19.30;81.50;;;;;;4805324;29;20450;-51
2022/10/17 08:23:53;;;;;;;6.68;4.70;;;19.30;81.30;;;;;;4804719;29;20050;-47
2022/10/17 08:26:22;;;;;;;4.88;4.03;;;19.40;80.90;;;;;;4805810;29;20071;-50
2022/10/17 08:28:52;;;;;;;;;;;19.50;80.80;;;;;;4799313;29;20115;-51
2022/10/17 08:31:19;;;;;;;7.65;3.90;;;19.60;81.00;;;;;;4824356;24;19925;-49
2022/10/17 08:33:49;;;;;;;6.97;3.88;;;19.60;80.20;;;;;;4804983;29;20046;-51
2022/10/17 08:36:18;;;;;;;5.57;4.32;;;19.70;80.20;;;;;;4805470;29;20051;-49
2022/10/17 08:38:47;;;;;;;4.15;3.85;;;19.80;80.30;;;;;;4805474;29;20047;-49
2022/10/17 08:41:37;;;;;;;5.68;4.25;;;19.80;80.30;;;;;;4802687;29;20096;-49
2022/10/17 08:44:37;;;;;;;5.15;4.00;;;19.90;80.10;;;;;;4802371;29;20047;-51
2022/10/17 08:47:12;;;;;;;5.53;4.55;;;20.10;80.00;;;;;;4800255;29;20065;-52
2022/10/17 08:49:47;;;;;;;6.28;4.00;;;20.10;80.10;;;;;;4802196;29;20122;-54
2022/10/17 08:52:36;;;;;;;5.50;4.03;;;20.20;79.60;;;;;;4804919;29;20039;-50
2022/10/17 08:55:10;;;;;;;5.47;3.75;;;20.30;79.40;;;;;;4805128;29;20111;-51
2022/10/17 08:57:39;;;;;;;4.65;3.85;;;20.40;79.10;;;;;;4803644;29;20058;-53
2022/10/17 09:00:19;;;;;;;5.20;3.97;;;20.50;78.80;;;;;;4804624;29;20118;-50
2022/10/17 09:02:58;;;;;;;4.93;3.88;;;20.60;78.40;;;;;;4804652;29;20049;-48
2022/10/17 09:05:40;;;;;;;4.70;3.75;;;20.60;77.70;;;;;;4799854;29;20057;-52
2022/10/17 09:08:15;;;;;;;6.07;4.65;;;20.70;77.30;;;;;;4800421;29;20114;-48
2022/10/17 09:11:03;;;;;;;4.75;4.20;;;20.70;77.30;;;;;;4804512;29;20099;-51
2022/10/17 09:14:17;;;;;;;4.00;3.35;;;20.80;77.30;;;;;;4804617;29;20137;-49
2022/10/17 09:17:13;;;;;;;4.13;3.50;;;20.80;76.30;;;;;;4813462;29;20065;-50
2022/10/17 09:19:45;;;;;;;4.53;4.10;;;20.90;76.70;;;;;;4798219;29;20051;-49
2022/10/17 09:22:17;;;;;;;4.13;3.58;;;20.90;76.90;;;;;;4804617;29;20046;-50
2022/10/17 09:24:49;;;;;;;5.25;3.55;;;20.90;76.90;;;;;;4801545;29;20043;-54
2022/10/17 09:27:50;;;;;;;5.15;3.70;;;20.90;76.80;;;;;;4802105;29;20061;-53
2022/10/17 09:30:42;;;;;;;5.55;3.40;;;21.00;76.30;;;;;;4804445;29;20047;-54
2022/10/17 09:33:23;;;;;;;4.00;3.00;;;21.00;76.00;;;;;;4804130;29;20058;-54
2022/10/17 09:36:21;;;;;;;4.28;3.28;;;21.00;76.10;;;;;;4801393;29;20108;-54
2022/10/17 09:39:02;;;;;;;4.93;3.38;;;21.00;75.50;;;;;;4799969;29;20107;-54
2022/10/17 09:41:50;;;;;;;4.50;3.60;;;21.10;75.80;;;;;;4801674;29;20800;-53
2022/10/17 09:44:25;;;;;;;4.20;3.80;;;21.10;75.60;;;;;;4797309;29;20047;-53
2022/10/17 09:47:19;;;;;;;5.50;3.70;;;21.10;75.60;;;;;;4804313;29;20478;-53
2022/10/17 09:49:48;;;;;;;5.03;3.80;;;21.10;74.80;;;;;;4799875;29;20759;-51
2022/10/17 09:52:15;;;;;;;4.00;3.15;;;21.20;75.10;;;;;;4799557;29;20445;-54
2022/10/17 09:54:46;;;;;;;4.95;3.50;;;21.20;75.00;;;;;;4805524;29;20051;-54
2022/10/17 09:57:15;;;;;;;6.47;3.60;;;21.10;74.90;;;;;;4801800;29;20058;-53
2022/10/17 09:59:58;;;;;;;5.57;4.32;;;21.20;74.80;;;;;;4802558;29;20043;-53
2022/10/17 10:02:29;;;;;;;4.85;3.25;;;21.20;74.80;;;;;;4802146;29;20061;-52
2022/10/17 10:05:17;;;;;;;4.20;3.05;;;21.10;74.80;;;;;;4800480;29;20564;-53
2022/10/17 10:08:17;;;;;;;4.43;3.90;;;21.20;74.90;;;;;;4798089;29;20501;-51
2022/10/17 10:10:44;;;;;;;5.13;3.13;;;21.20;75.30;;;;;;4799344;29;20070;-53
2022/10/17 10:13:19;;;;;;;3.90;3.20;;;21.20;74.90;;;;;;4795862;29;20512;-50
2022/10/17 10:15:49;;;;;;;3.63;3.33;;;21.20;74.40;;;;;;4803833;29;20046;-54
2022/10/17 10:18:35;;;;;;;4.15;3.20;;;21.20;74.70;;;;;;4808190;29;20508;-54
2022/10/17 10:21:10;;;;;;;4.53;3.30;;;21.20;74.10;;;;;;4804606;29;20047;-50
2022/10/17 10:23:40;;;;;;;4.22;3.13;;;21.30;74.10;;;;;;4801299;29;20046;-53
2022/10/17 10:26:18;;;;;;;3.42;3.13;;;21.30;74.20;;;;;;4803799;29;20049;-50
2022/10/17 10:28:57;;;;;;;3.35;2.80;;;21.30;73.70;;;;;;4803129;29;20050;-54
2022/10/17 10:31:29;;;;;;;4.00;3.60;;;21.40;73.60;;;;;;4800865;29;20529;-52
2022/10/17 10:34:16;;;;;;;5.90;3.10;;;21.40;73.80;;;;;;4803531;29;20088;-51
2022/10/17 10:37:00;;;;;;;4.63;2.90;;;21.50;73.50;;;;;;4804699;29;20055;-52
2022/10/17 10:40:05;;;;;;;4.18;3.45;;;21.40;73.10;;;;;;4806651;29;20055;-53
2022/10/17 10:42:39;;;;;;;5.65;3.65;;;21.40;73.60;;;;;;4802218;29;20081;-54
2022/10/17 10:45:17;;;;;;;3.15;2.75;;;21.40;73.50;;;;;;4810478;29;20073;-54
2022/10/17 10:48:21;;;;;;;5.65;3.58;;;21.40;73.80;;;;;;4807270;29;20047;-51
2022/10/17 10:50:59;;;;;;;4.95;3.05;;;21.40;74.10;;;;;;4804567;29;20562;-54
2022/10/17 10:53:45;;;;;;;4.75;3.20;;;21.40;74.40;;;;;;4806476;29;20071;-54
2022/10/17 10:56:30;;;;;;;6.32;3.95;;;21.40;75.10;;;;;;4803322;29;20047;-51
2022/10/17 10:59:08;;;;;;;4.40;4.00;;;21.40;75.40;;;;;;4798822;29;20049;-53
2022/10/17 11:01:56;;;;;;;4.40;3.30;;;21.40;75.80;;;;;;4799397;29;20523;-54
2022/10/17 11:04:48;;;;;;;4.60;3.92;;;21.50;76.00;;;;;;4802845;29;20087;-54
2022/10/17 11:07:31;;;;;;;5.80;3.45;;;21.50;75.50;;;;;;4807011;29;20065;-51
2022/10/17 11:10:24;;;;;;;4.35;3.95;;;21.50;75.40;;;;;;4802297;29;20054;-53
2022/10/17 11:13:00;;;;;;;3.60;3.30;;;21.50;75.00;;;;;;4800992;29;20043;-52
2022/10/17 11:15:45;;;;;;;3.97;3.58;;;21.50;75.20;;;;;;4806460;29;20073;-54
2022/10/17 11:18:25;;;;;;;3.97;3.58;;;21.50;74.80;;;;;;4800854;29;20088;-53
2022/10/17 11:21:16;;;;;;;4.85;3.85;;;21.60;74.70;;;;;;4806097;29;20134;-54
2022/10/17 11:23:52;;;;;;;3.65;3.35;;;21.60;74.70;;;;;;4803289;29;20127;-54
2022/10/17 11:26:25;;;;;;;4.82;4.18;;;21.60;74.90;;;;;;4804244;29;20073;-51
2022/10/17 11:29:06;;;;;;;5.82;3.95;;;21.60;75.00;;;;;;4804194;29;20049;-51
2022/10/17 11:31:38;;;;;;;4.53;3.97;;;21.60;75.00;;;;;;4806236;29;20133;-53
2022/10/17 11:34:32;;;;;;;5.55;4.03;;;21.60;75.20;;;;;;4805652;29;20062;-54
2022/10/17 11:37:04;;;;;;;4.78;3.35;;;21.60;75.00;;;;;;4798078;29;20130;-54
2022/10/17 11:39:41;;;;;;;;;;;21.60;75.10;;;;;;4806031;29;20530;-53
2022/10/17 11:42:16;;;;;;;6.90;3.15;;;21.60;75.10;;;;;;4806176;29;19933;-51
2022/10/17 11:44:44;;;;;;;6.15;3.33;;;21.60;74.80;;;;;;4802117;29;20054;-53
2022/10/17 11:47:41;;;;;;;5.20;3.53;;;21.60;74.80;;;;;;4806033;29;20058;-51
2022/10/17 11:50:29;;;;;;;8.40;3.58;;;21.60;75.00;;;;;;4806893;29;20071;-54
2022/10/17 11:53:33;;;;;;;3.95;3.65;;;21.60;75.30;;;;;;4802791;29;20112;-51
2022/10/17 11:56:03;;;;;;;6.53;4.05;;;21.60;75.10;;;;;;4794889;29;20053;-52
2022/10/17 11:58:52;;;;;;;5.03;3.95;;;21.50;75.10;;;;;;4805507;29;20051;-51
2022/10/17 12:01:40;;;;;;;4.95;4.03;;;21.50;75.10;;;;;;4805575;29;20058;-53
2022/10/17 12:04:40;;;;;;;5.35;3.80;;;21.50;75.40;;;;;;4804235;29;20046;-50
2022/10/17 12:07:24;;;;;;;5.20;3.53;;;21.50;75.00;;;;;;4805942;29;20413;-54
2022/10/17 12:10:02;;;;;;;4.28;3.88;;;21.50;75.10;;;;;;4805499;29;20508;-52
2022/10/17 12:12:39;;;;;;;6.15;3.22;;;21.50;75.50;;;;;;4804686;29;20058;-53
2022/10/17 12:15:11;;;;;;;4.88;3.38;;;21.60;75.40;;;;;;4798866;29;20051;-53
2022/10/17 12:18:01;;;;;;;3.85;3.13;;;21.60;75.10;;;;;;4805620;29;20047;-53
2022/10/17 12:20:33;;;;;;;6.03;3.67;;;21.70;75.10;;;;;;4805309;29;20053;-52
2022/10/17 12:23:11;;;;;;;4.85;2.97;;;21.70;75.00;;;;;;4798867;29;20051;-53
2022/10/17 12:26:02;;;;;;;4.40;3.05;;;21.80;74.30;;;;;;4809281;29;20172;-52
2022/10/17 12:28:44;;;;;;;3.78;3.05;;;21.80;74.30;;;;;;4804753;29;20605;-53
2022/10/17 12:31:16;;;;;;;3.97;2.78;;;21.90;74.30;;;;;;4800906;29;20408;-50
2022/10/17 12:33:52;;;;;;;4.85;3.25;;;21.90;73.90;;;;;;4795705;29;20042;-54
2022/10/17 12:36:22;;;;;;;4.75;3.28;;;21.90;73.70;;;;;;4807670;29;20117;-55
2022/10/17 12:39:02;;;;;;;8.80;3.03;;;22.00;73.30;;;;;;4816804;29;20046;-54
2022/10/17 12:41:38;;;;;;;4.13;2.90;;;22.00;73.30;;;;;;4823082;29;20083;-54
2022/10/17 12:44:13;;;;;;;3.63;3.05;;;22.00;72.40;;;;;;4800038;29;20045;-53
2022/10/17 12:46:50;;;;;;;3.13;2.83;;;22.10;72.40;;;;;;4805472;29;20404;-54
2022/10/17 12:49:38;;;;;;;3.90;2.60;;;22.10;72.40;;;;;;4805191;29;20053;-54
2022/10/17 12:52:26;;;;;;;5.32;3.78;;;22.10;72.00;;;;;;4798530;29;20050;-55
2022/10/17 12:55:11;;;;;;;4.13;2.83;;;22.10;72.00;;;;;;4800507;29;20053;-51
2022/10/17 12:57:58;;;;;;;4.72;2.80;;;22.10;72.30;;;;;;4800557;29;20049;-55
2022/10/17 13:00:31;;;;;;;3.65;2.92;;;22.10;72.40;;;;;;4803478;29;20047;-55
2022/10/17 13:03:14;;;;;;;8.00;4.97;;;22.00;72.60;;;;;;4803030;29;20112;-52
2022/10/17 13:05:50;;;;;;;3.63;3.30;;;22.10;72.90;;;;;;4787837;29;20122;-54
2022/10/17 13:08:34;;;;;;;5.10;3.00;;;22.10;72.70;;;;;;4802726;29;20505;-54
2022/10/17 13:11:07;;;;;;;2.72;2.53;;;22.00;72.70;;;;;;4801061;29;20051;-51
2022/10/17 13:13:50;;;;;;;6.00;3.10;;;22.00;72.80;;;;;;4801472;29;20129;-52
2022/10/17 13:16:33;;;;;;;7.25;3.03;;;22.00;72.70;;;;;;4804110;29;20099;-52
2022/10/17 13:19:02;;;;;;;5.30;2.88;;;22.00;72.70;;;;;;4811958;29;20081;-51
2022/10/17 13:21:34;;;;;;;5.78;3.00;;;21.90;72.90;;;;;;4799151;29;20107;-52
2022/10/17 13:24:26;;;;;;;4.00;2.90;;;21.90;73.00;;;;;;4803797;29;20047;-53
2022/10/17 13:26:55;;;;;;;3.88;2.72;;;21.90;72.80;;;;;;4785742;29;20134;-54
2022/10/17 13:29:27;;;;;;;4.00;2.92;;;21.80;73.10;;;;;;4789169;29;20052;-52